Portada
METAR-TAF:

METAR-TAF

Aeroports :

El Bayadh, Algèria

latitud: 33-43-15N, longitud: 1-05-29E, altitud: 1366 m

Observació

L'informe es va fer fa 5 hores i 48 minuts, a les 18:00 UTC
Vent 14 kt del Nord
Temperatura 7°C
Humitat 66%
Pressió 1015 hPa
Visibilitat 10 km o més
Cel ennuvolat a una alçada de 2300 ft

METAR: DAOY 031800Z 36014KT 9999 BKN023 07/01 Q1015

Hora: 00:48 (23:48 UTC)


TAF: manca

Observacions i pronòstics meteorològics de més de 4000 aeroports (METAR i TAF).

Les estacions disponibles són els punts grocs i vermells al mapa.

Posi el ratolí al punt desitjat per veure el nom de l'estació.

Feu clic per veure les observacions i els pronòstics meteorològics.

Per canviar el mapa: feu clic els botons verds amb una creu de color negre per apropar; al botó verd amb un guió per allunyar la imatge; o en les fletxes verdes per a mapes adjacents.


METAR-TAF: